createdAt,value
2023-03-21T00:01:54.313Z,11.68
2023-03-21T00:04:22.966Z,11.81
2023-03-21T00:06:49.706Z,11.78
2023-03-21T00:09:16.540Z,11.79
2023-03-21T00:11:43.315Z,11.79
2023-03-21T00:14:14.451Z,11.77
2023-03-21T00:16:41.612Z,11.87
2023-03-21T00:19:09.737Z,11.86
2023-03-21T00:21:59.242Z,11.83
2023-03-21T00:24:25.460Z,11.84
2023-03-21T00:26:52.063Z,11.87
2023-03-21T00:29:18.998Z,11.76
2023-03-21T00:31:45.538Z,11.85
2023-03-21T00:36:39.645Z,11.82
2023-03-21T00:39:06.366Z,11.89
2023-03-21T00:41:45.930Z,11.94
2023-03-21T00:44:15.957Z,11.84
2023-03-21T00:46:54.186Z,11.89
2023-03-21T00:49:27.719Z,11.75
2023-03-21T00:51:57.146Z,11.87
2023-03-21T00:54:23.739Z,12.30
2023-03-21T00:56:50.218Z,12.18
2023-03-21T00:59:17.303Z,12.58
2023-03-21T01:01:46.537Z,11.98
2023-03-21T01:04:16.637Z,13.54
2023-03-21T01:06:44.566Z,14.31
2023-03-21T01:09:26.137Z,12.60
2023-03-21T01:11:53.644Z,12.19
2023-03-21T01:14:23.702Z,12.25
2023-03-21T01:16:52.855Z,12.25
2023-03-21T01:19:30.950Z,11.98
2023-03-21T01:22:04.437Z,11.99
2023-03-21T01:24:31.264Z,11.84
2023-03-21T01:26:58.779Z,11.90
2023-03-21T01:29:25.226Z,11.99
2023-03-21T01:31:51.698Z,11.87
2023-03-21T01:34:18.218Z,12.00
2023-03-21T01:36:45.022Z,11.89
2023-03-21T01:39:11.575Z,12.44
2023-03-21T01:41:43.493Z,13.84
2023-03-21T01:44:20.056Z,11.85
2023-03-21T01:47:11.602Z,11.86
2023-03-21T01:49:48.528Z,11.95
2023-03-21T01:52:35.334Z,12.08
2023-03-21T01:55:06.925Z,12.50
2023-03-21T01:57:54.937Z,11.76
2023-03-21T02:00:29.566Z,11.87
2023-03-21T02:03:06.164Z,11.74
2023-03-21T02:05:59.120Z,13.20
2023-03-21T02:08:38.374Z,12.96
2023-03-21T02:11:07.029Z,12.34
2023-03-21T02:13:33.493Z,12.68
2023-03-21T02:16:17.128Z,12.14
2023-03-21T02:19:02.273Z,12.10
2023-03-21T02:22:05.696Z,13.21
2023-03-21T02:24:48.759Z,14.10
2023-03-21T02:27:23.837Z,13.36
2023-03-21T02:30:20.213Z,12.57
2023-03-21T02:33:02.019Z,13.91
2023-03-21T02:35:31.703Z,12.77
2023-03-21T02:38:01.831Z,13.26
2023-03-21T02:40:43.270Z,12.77
2023-03-21T02:43:23.398Z,14.13
2023-03-21T02:46:08.558Z,12.60
2023-03-21T02:48:50.274Z,13.53
2023-03-21T02:51:21.100Z,12.46
2023-03-21T02:54:13.039Z,11.91
2023-03-21T02:56:41.379Z,11.72
2023-03-21T02:59:08.801Z,11.78
2023-03-21T03:01:35.543Z,11.72
2023-03-21T03:04:02.122Z,12.76
2023-03-21T03:06:42.032Z,13.52
2023-03-21T03:09:48.167Z,13.66
2023-03-21T03:12:34.249Z,13.32
2023-03-21T03:15:28.364Z,13.21
2023-03-21T03:18:27.701Z,13.80
2023-03-21T03:21:27.856Z,11.77
2023-03-21T03:24:23.583Z,11.70
2023-03-21T03:26:59.191Z,11.67
2023-03-21T03:29:28.622Z,11.80
2023-03-21T03:32:03.715Z,11.66
2023-03-21T03:34:34.771Z,11.67
2023-03-21T03:37:05.335Z,12.97
2023-03-21T03:39:43.691Z,13.99
2023-03-21T03:42:27.900Z,12.51
2023-03-21T03:44:56.156Z,12.50
2023-03-21T03:47:59.414Z,13.64
2023-03-21T03:50:38.250Z,11.89
2023-03-21T03:53:20.178Z,11.63
2023-03-21T03:55:49.191Z,11.64
2023-03-21T03:58:23.826Z,11.51
2023-03-21T04:00:52.441Z,11.57
2023-03-21T04:03:19.026Z,12.18
2023-03-21T04:05:48.141Z,11.59
2023-03-21T04:08:15.463Z,11.53
2023-03-21T04:10:42.916Z,11.69
2023-03-21T04:13:09.688Z,13.46
2023-03-21T04:15:36.327Z,13.47
2023-03-21T04:18:03.354Z,13.81
2023-03-21T04:20:36.490Z,11.72
2023-03-21T04:23:05.000Z,11.42
2023-03-21T04:25:35.033Z,11.72
2023-03-21T04:28:02.492Z,11.42
2023-03-21T04:30:29.281Z,13.21
2023-03-21T04:33:01.039Z,11.39
2023-03-21T04:35:28.461Z,11.33
2023-03-21T04:37:55.854Z,11.33
2023-03-21T04:40:22.420Z,11.40
2023-03-21T04:42:49.084Z,11.37
2023-03-21T04:45:16.689Z,11.38
2023-03-21T04:47:43.253Z,11.38
2023-03-21T04:50:11.045Z,11.39
2023-03-21T04:52:37.523Z,11.37
2023-03-21T04:55:04.441Z,11.40
2023-03-21T04:57:31.045Z,11.41
2023-03-21T04:59:57.463Z,12.65
2023-03-21T05:02:23.972Z,11.68
2023-03-21T05:04:50.608Z,11.63
2023-03-21T05:07:17.164Z,12.49
2023-03-21T05:09:43.622Z,12.65
2023-03-21T05:12:10.051Z,12.78
2023-03-21T05:14:36.545Z,12.35
2023-03-21T05:17:05.212Z,11.56
2023-03-21T05:19:35.889Z,11.50
2023-03-21T05:22:08.602Z,11.51
2023-03-21T05:24:37.393Z,11.45
2023-03-21T05:27:03.874Z,11.46
2023-03-21T05:29:32.691Z,11.45
2023-03-21T05:32:00.958Z,12.40
2023-03-21T05:34:28.315Z,11.52
2023-03-21T05:36:55.233Z,13.22
2023-03-21T05:39:21.886Z,12.98
2023-03-21T05:41:48.409Z,12.95
2023-03-21T05:44:14.862Z,13.60
2023-03-21T05:46:41.460Z,11.76
2023-03-21T05:49:07.905Z,13.59
2023-03-21T05:51:34.439Z,11.64
2023-03-21T05:54:00.880Z,11.53
2023-03-21T05:56:27.362Z,11.55
2023-03-21T05:58:53.944Z,11.48
2023-03-21T06:01:20.476Z,11.52
2023-03-21T06:03:47.024Z,13.27
2023-03-21T06:06:13.525Z,11.58
2023-03-21T06:08:40.150Z,11.49
2023-03-21T06:11:19.397Z,11.70
2023-03-21T06:13:45.909Z,11.33
2023-03-21T06:16:12.790Z,11.29
2023-03-21T06:18:39.370Z,11.33
2023-03-21T06:21:06.083Z,13.33
2023-03-21T06:23:32.686Z,13.50
2023-03-21T06:25:59.168Z,13.49
2023-03-21T06:28:25.740Z,13.41
2023-03-21T06:30:52.431Z,13.44
2023-03-21T06:33:18.941Z,13.48
2023-03-21T06:35:51.274Z,13.39
2023-03-21T06:38:17.823Z,13.61
2023-03-21T06:40:46.949Z,13.58
2023-03-21T06:43:14.169Z,13.65
2023-03-21T06:45:40.960Z,13.71
2023-03-21T06:48:09.274Z,12.43
2023-03-21T06:50:36.142Z,13.67
2023-03-21T06:53:02.831Z,13.74
2023-03-21T06:55:29.381Z,13.63
2023-03-21T06:57:57.540Z,11.70
2023-03-21T07:00:24.632Z,13.21
2023-03-21T07:02:51.824Z,13.61
2023-03-21T07:05:18.489Z,13.75
2023-03-21T07:07:45.035Z,13.70
2023-03-21T07:10:11.794Z,13.68
2023-03-21T07:12:38.283Z,13.54
2023-03-21T07:15:07.206Z,12.98
2023-03-21T07:17:34.184Z,13.74
2023-03-21T07:20:00.653Z,13.64
2023-03-21T07:22:27.193Z,13.50
2023-03-21T07:25:04.398Z,13.02
2023-03-21T07:27:31.975Z,13.21
2023-03-21T07:29:58.526Z,13.49
2023-03-21T07:32:29.859Z,13.38
2023-03-21T07:34:56.632Z,11.72
2023-03-21T07:37:24.007Z,11.66
2023-03-21T07:39:51.457Z,11.54
2023-03-21T07:42:18.740Z,11.58
2023-03-21T07:44:45.256Z,11.63
2023-03-21T07:47:11.735Z,11.65
2023-03-21T07:49:38.243Z,11.66
2023-03-21T07:52:06.754Z,12.06
2023-03-21T07:54:33.498Z,13.32
2023-03-21T07:57:00.058Z,12.87
2023-03-21T07:59:26.696Z,14.03
2023-03-21T08:01:53.164Z,13.96
2023-03-21T08:04:19.906Z,14.19
2023-03-21T08:06:46.390Z,14.33
2023-03-21T08:09:12.941Z,14.47
2023-03-21T08:11:40.635Z,14.29
2023-03-21T08:14:07.135Z,14.45
2023-03-21T08:16:33.748Z,14.17
2023-03-21T08:19:00.292Z,12.61
2023-03-21T08:21:27.521Z,14.32
2023-03-21T08:23:54.292Z,14.44
2023-03-21T08:26:21.339Z,14.29
2023-03-21T08:28:47.965Z,14.08
2023-03-21T08:31:15.056Z,14.14
2023-03-21T08:33:41.580Z,14.72
2023-03-21T08:36:08.725Z,14.84
2023-03-21T08:38:35.890Z,14.60
2023-03-21T08:41:02.939Z,14.57
2023-03-21T08:43:29.539Z,14.55
2023-03-21T08:45:56.474Z,14.91
2023-03-21T08:48:23.549Z,14.89
2023-03-21T08:50:50.316Z,15.09
2023-03-21T08:53:16.849Z,15.17
2023-03-21T08:55:44.392Z,15.03
2023-03-21T08:58:11.310Z,13.86
2023-03-21T09:00:38.123Z,13.91
2023-03-21T09:03:05.070Z,14.80
2023-03-21T09:05:31.924Z,14.44
2023-03-21T09:07:58.503Z,15.10
2023-03-21T09:10:25.027Z,15.15
2023-03-21T09:12:53.290Z,14.94
2023-03-21T09:15:21.588Z,15.17
2023-03-21T09:17:52.439Z,13.62
2023-03-21T09:20:31.214Z,14.59
2023-03-21T09:22:59.137Z,15.03
2023-03-21T09:25:30.995Z,12.84
2023-03-21T09:27:58.157Z,13.66
2023-03-21T09:30:26.498Z,15.25
2023-03-21T09:32:55.541Z,15.25
2023-03-21T09:35:22.652Z,12.96
2023-03-21T09:37:49.941Z,12.97
2023-03-21T09:40:58.176Z,15.38
2023-03-21T09:44:03.643Z,12.73
2023-03-21T09:46:55.076Z,14.13
2023-03-21T09:49:31.346Z,13.91
2023-03-21T09:52:05.569Z,12.62
2023-03-21T09:54:43.899Z,13.62
2023-03-21T09:57:36.452Z,15.04
2023-03-21T10:00:14.400Z,14.88
2023-03-21T10:02:47.179Z,12.69
2023-03-21T10:05:26.068Z,13.04
2023-03-21T10:08:07.109Z,12.60
2023-03-21T10:10:48.066Z,14.40
2023-03-21T10:13:23.725Z,12.81
2023-03-21T10:15:50.370Z,14.85
2023-03-21T10:18:24.822Z,15.50
2023-03-21T10:20:52.171Z,12.82
2023-03-21T10:23:22.657Z,13.65
2023-03-21T10:25:54.925Z,13.10
2023-03-21T10:28:27.158Z,13.97
2023-03-21T10:31:02.264Z,13.10
2023-03-21T10:33:38.718Z,13.53
2023-03-21T10:36:11.561Z,13.21
2023-03-21T10:38:43.529Z,13.57
2023-03-21T10:41:11.527Z,13.99
2023-03-21T10:43:40.945Z,15.54
2023-03-21T10:46:19.050Z,15.02
2023-03-21T10:48:52.423Z,15.60
2023-03-21T10:51:27.683Z,15.60
2023-03-21T10:53:57.804Z,15.44
2023-03-21T10:56:29.335Z,13.94
2023-03-21T10:59:01.418Z,13.24
2023-03-21T11:01:41.266Z,13.17
2023-03-21T11:04:09.502Z,13.75
2023-03-21T11:06:40.822Z,12.96
2023-03-21T11:09:13.187Z,12.92
2023-03-21T11:12:11.001Z,12.90
2023-03-21T11:14:43.249Z,12.85
2023-03-21T11:17:22.212Z,12.89
2023-03-21T11:19:49.901Z,12.75
2023-03-21T11:22:18.390Z,12.90
2023-03-21T11:24:51.382Z,12.89
2023-03-21T11:27:18.478Z,13.03
2023-03-21T11:29:51.200Z,12.89
2023-03-21T11:32:22.470Z,12.96
2023-03-21T11:35:11.115Z,13.11
2023-03-21T11:37:37.524Z,13.16
2023-03-21T11:40:13.504Z,15.76
2023-03-21T11:42:48.266Z,14.60
2023-03-21T11:45:36.005Z,15.32
2023-03-21T11:48:13.032Z,13.65
2023-03-21T11:50:47.370Z,13.47
2023-03-21T11:53:29.176Z,13.61
2023-03-21T11:56:19.107Z,13.55
2023-03-21T11:58:51.494Z,13.45
2023-03-21T12:01:49.506Z,13.49
2023-03-21T12:04:44.485Z,13.70
2023-03-21T12:07:16.987Z,13.76
2023-03-21T12:09:48.591Z,14.00
2023-03-21T12:12:50.414Z,14.07
2023-03-21T12:15:22.780Z,14.43
2023-03-21T12:17:52.311Z,14.22
2023-03-21T12:20:48.327Z,14.26
2023-03-21T12:23:39.672Z,14.34
2023-03-21T12:26:18.474Z,14.36
2023-03-21T12:29:27.156Z,14.42
2023-03-21T12:32:21.510Z,14.35
2023-03-21T12:35:08.345Z,14.22
2023-03-21T12:37:52.025Z,14.31
2023-03-21T12:40:39.510Z,14.50
2023-03-21T12:43:12.049Z,14.40
2023-03-21T12:45:47.342Z,14.93
2023-03-21T12:48:32.975Z,15.96
2023-03-21T12:51:02.330Z,15.03
2023-03-21T12:53:42.896Z,16.72
2023-03-21T12:56:16.885Z,14.58
2023-03-21T12:58:52.338Z,14.60
2023-03-21T13:01:22.046Z,14.39
2023-03-21T13:04:08.111Z,14.35
2023-03-21T13:06:36.591Z,14.22
2023-03-21T13:09:13.000Z,14.28
2023-03-21T13:11:40.069Z,14.55
2023-03-21T13:14:08.927Z,15.63
2023-03-21T13:16:41.393Z,14.54
2023-03-21T13:19:16.599Z,14.29
2023-03-21T13:22:16.148Z,14.40
2023-03-21T13:24:49.667Z,14.32
2023-03-21T13:27:36.957Z,14.16
2023-03-21T13:30:07.328Z,14.19
2023-03-21T13:32:44.318Z,14.11
2023-03-21T13:35:15.946Z,14.06
2023-03-21T13:37:51.608Z,14.07
2023-03-21T13:40:22.317Z,14.03
2023-03-21T13:42:59.544Z,14.26
2023-03-21T13:45:44.866Z,15.61
2023-03-21T13:48:31.188Z,15.75
2023-03-21T13:51:05.676Z,15.12
2023-03-21T13:53:45.670Z,16.46
2023-03-21T13:56:12.076Z,16.54
2023-03-21T13:58:50.226Z,15.30
2023-03-21T14:01:26.913Z,16.36
2023-03-21T14:03:59.528Z,15.26
2023-03-21T14:06:36.197Z,16.87
2023-03-21T14:09:04.185Z,14.48
2023-03-21T14:11:33.507Z,14.82
2023-03-21T14:14:02.321Z,16.66
2023-03-21T14:16:29.854Z,16.88
2023-03-21T14:19:03.846Z,16.69
2023-03-21T14:21:33.053Z,16.82
2023-03-21T14:24:04.396Z,16.69
2023-03-21T14:26:34.381Z,14.77
2023-03-21T14:29:05.529Z,16.57
2023-03-21T14:31:34.076Z,16.37
2023-03-21T14:34:02.559Z,16.52
2023-03-21T14:36:32.882Z,15.09
2023-03-21T14:39:12.444Z,14.51
2023-03-21T14:41:51.575Z,16.17
2023-03-21T14:44:27.959Z,17.02
2023-03-21T14:47:17.611Z,16.54
2023-03-21T14:49:44.329Z,16.78
2023-03-21T14:52:20.499Z,16.96
2023-03-21T14:54:48.188Z,16.86
2023-03-21T14:57:20.725Z,15.77
2023-03-21T14:59:52.115Z,14.81
2023-03-21T15:02:23.639Z,14.63
2023-03-21T15:04:53.434Z,16.66
2023-03-21T15:07:37.984Z,14.79
2023-03-21T15:10:17.260Z,16.03
2023-03-21T15:12:55.390Z,14.91
2023-03-21T15:15:26.071Z,16.54
2023-03-21T15:17:56.871Z,14.80
2023-03-21T15:20:27.757Z,14.77
2023-03-21T15:23:03.567Z,15.41
2023-03-21T15:25:34.688Z,16.72
2023-03-21T15:28:02.035Z,15.14
2023-03-21T15:30:31.223Z,15.21
2023-03-21T15:33:05.376Z,16.24
2023-03-21T15:35:41.880Z,15.40
2023-03-21T15:38:22.665Z,16.13
2023-03-21T15:40:49.225Z,17.07
2023-03-21T15:43:16.784Z,16.00
2023-03-21T15:45:54.870Z,17.85
2023-03-21T15:48:26.392Z,15.61
2023-03-21T15:51:04.992Z,17.57
2023-03-21T15:53:33.688Z,15.67
2023-03-21T15:56:04.534Z,15.36
2023-03-21T15:58:43.955Z,17.43
2023-03-21T16:01:18.091Z,16.00
2023-03-21T16:03:47.941Z,15.48
2023-03-21T16:06:25.693Z,15.27
2023-03-21T16:09:03.425Z,15.44
2023-03-21T16:11:39.920Z,15.38
2023-03-21T16:14:07.076Z,16.66
2023-03-21T16:16:33.720Z,15.44
2023-03-21T16:19:01.399Z,15.37
2023-03-21T16:21:30.663Z,15.92
2023-03-21T16:23:58.159Z,15.13
2023-03-21T16:26:27.587Z,15.90
2023-03-21T16:28:54.930Z,17.27
2023-03-21T16:31:23.782Z,17.26
2023-03-21T16:33:51.465Z,16.91
2023-03-21T16:36:19.525Z,15.10
2023-03-21T16:38:47.658Z,17.17
2023-03-21T16:41:15.189Z,17.36
2023-03-21T16:43:45.460Z,17.42
2023-03-21T16:46:24.222Z,15.31
2023-03-21T16:48:53.591Z,15.70
2023-03-21T16:51:29.274Z,16.91
2023-03-21T16:53:57.262Z,15.23
2023-03-21T16:56:26.969Z,15.02
2023-03-21T16:58:54.477Z,17.17
2023-03-21T17:01:25.987Z,17.05
2023-03-21T17:03:53.591Z,17.36
2023-03-21T17:06:24.287Z,15.26
2023-03-21T17:08:51.840Z,15.00
2023-03-21T17:11:20.754Z,14.90
2023-03-21T17:13:52.480Z,14.79
2023-03-21T17:16:23.829Z,14.73
2023-03-21T17:18:51.679Z,14.68
2023-03-21T17:21:23.711Z,14.82
2023-03-21T17:23:52.367Z,15.65
2023-03-21T17:26:22.240Z,14.84
2023-03-21T17:28:53.639Z,14.68
2023-03-21T17:31:23.831Z,14.71
2023-03-21T17:33:51.189Z,15.09
2023-03-21T17:36:28.053Z,15.34
2023-03-21T17:38:55.418Z,14.53
2023-03-21T17:41:22.725Z,14.51
2023-03-21T17:43:50.956Z,14.56
2023-03-21T17:46:21.055Z,15.18
2023-03-21T17:48:48.127Z,14.94
2023-03-21T17:51:16.403Z,15.24
2023-03-21T17:53:44.387Z,14.78
2023-03-21T17:56:16.344Z,14.74
2023-03-21T17:58:42.963Z,15.65
2023-03-21T18:01:09.777Z,15.04
2023-03-21T18:03:36.325Z,14.52
2023-03-21T18:06:03.877Z,15.13
2023-03-21T18:08:30.354Z,14.56
2023-03-21T18:10:56.851Z,14.64
2023-03-21T18:13:23.837Z,15.75
2023-03-21T18:15:50.662Z,15.61
2023-03-21T18:18:17.268Z,14.47
2023-03-21T18:20:53.935Z,14.73
2023-03-21T18:23:21.218Z,14.77
2023-03-21T18:25:47.858Z,14.39
2023-03-21T18:28:19.451Z,14.25
2023-03-21T18:33:36.976Z,14.09
2023-03-21T18:36:07.535Z,14.01
2023-03-21T18:38:35.470Z,14.06
2023-03-21T18:41:02.003Z,14.89
2023-03-21T18:46:15.874Z,14.03
2023-03-21T18:48:42.778Z,14.07
2023-03-21T18:51:12.393Z,14.03
2023-03-21T18:53:39.265Z,14.39
2023-03-21T18:56:09.836Z,13.99
2023-03-21T18:58:37.284Z,14.59
2023-03-21T19:01:04.993Z,14.13
2023-03-21T19:03:36.757Z,14.10
2023-03-21T19:06:06.389Z,14.10
2023-03-21T19:08:36.984Z,14.04
2023-03-21T19:11:06.791Z,14.07
2023-03-21T19:13:34.470Z,14.02
2023-03-21T19:16:02.569Z,14.05
2023-03-21T19:18:50.341Z,14.48
2023-03-21T19:21:21.504Z,13.86
2023-03-21T19:24:23.002Z,13.82
2023-03-21T19:26:34.602Z,13.79
2023-03-21T19:29:01.282Z,13.69
2023-03-21T19:31:27.863Z,13.64
2023-03-21T19:33:54.546Z,13.71
2023-03-21T19:36:22.948Z,13.62
2023-03-21T19:38:50.416Z,13.59
2023-03-21T19:41:17.515Z,13.60
2023-03-21T19:43:53.552Z,13.65
2023-03-21T19:46:24.460Z,13.63
2023-03-21T19:48:51.627Z,13.61
2023-03-21T19:51:28.317Z,13.63
2023-03-21T19:53:56.269Z,13.55
2023-03-21T19:56:26.477Z,13.55
2023-03-21T19:58:54.665Z,13.57
2023-03-21T20:01:21.861Z,13.51
2023-03-21T20:03:48.489Z,13.54
2023-03-21T20:06:15.014Z,13.53
2023-03-21T20:11:28.170Z,13.49
2023-03-21T20:13:54.721Z,14.24
2023-03-21T20:16:21.466Z,14.13
2023-03-21T20:18:48.093Z,13.57
2023-03-21T20:21:17.917Z,13.36
2023-03-21T20:23:50.808Z,13.33
2023-03-21T20:26:17.692Z,13.32
2023-03-21T20:28:56.633Z,13.25
2023-03-21T20:31:32.699Z,13.27
2023-03-21T20:33:59.577Z,13.20
2023-03-21T20:36:40.063Z,13.24
2023-03-21T20:39:07.587Z,13.11
2023-03-21T20:41:34.153Z,12.98
2023-03-21T20:46:49.764Z,12.98
2023-03-21T20:49:16.436Z,12.90
2023-03-21T20:54:30.084Z,12.85
2023-03-21T20:56:57.200Z,12.84
2023-03-21T20:59:27.683Z,12.80
2023-03-21T21:01:58.010Z,12.77
2023-03-21T21:04:48.080Z,12.86
2023-03-21T21:07:20.370Z,12.72
2023-03-21T21:09:47.820Z,12.73
2023-03-21T21:12:16.349Z,12.68
2023-03-21T21:14:43.721Z,12.66
2023-03-21T21:17:28.326Z,12.66
2023-03-21T21:19:57.343Z,12.65
2023-03-21T21:22:23.896Z,12.66
2023-03-21T21:24:50.430Z,12.67
2023-03-21T21:27:16.993Z,12.65
2023-03-21T21:29:43.670Z,12.69
2023-03-21T21:32:11.368Z,12.73
2023-03-21T21:34:38.224Z,12.83
2023-03-21T21:37:05.185Z,12.78
2023-03-21T21:39:37.777Z,12.85
2023-03-21T21:42:05.095Z,12.72
2023-03-21T21:44:31.742Z,12.67
2023-03-21T21:46:58.276Z,12.70
2023-03-21T21:49:25.076Z,12.71
2023-03-21T21:51:51.627Z,12.72
2023-03-21T21:54:18.643Z,12.69
2023-03-21T21:56:48.486Z,12.71
2023-03-21T21:59:22.024Z,12.89
2023-03-21T22:01:51.317Z,14.69
2023-03-21T22:04:18.935Z,13.89
2023-03-21T22:06:47.509Z,13.01
2023-03-21T22:09:15.679Z,12.85
2023-03-21T22:11:42.275Z,12.83
2023-03-21T22:14:08.796Z,12.81
2023-03-21T22:16:35.324Z,12.81
2023-03-21T22:19:01.836Z,12.78
2023-03-21T22:21:28.397Z,13.27
2023-03-21T22:23:54.856Z,12.90
2023-03-21T22:26:21.470Z,13.04
2023-03-21T22:28:47.997Z,12.83
2023-03-21T22:31:16.059Z,12.81
2023-03-21T22:33:45.552Z,14.93
2023-03-21T22:36:12.198Z,12.91
2023-03-21T22:38:38.837Z,12.91
2023-03-21T22:41:06.602Z,13.06
2023-03-21T22:43:34.236Z,13.02
2023-03-21T22:46:03.251Z,13.90
2023-03-21T22:48:30.877Z,14.72
2023-03-21T22:50:58.953Z,15.23
2023-03-21T22:53:25.929Z,13.64
2023-03-21T22:55:52.407Z,15.04
2023-03-21T22:58:19.143Z,14.92
2023-03-21T23:00:46.040Z,15.09
2023-03-21T23:03:14.522Z,14.98
2023-03-21T23:05:42.073Z,14.60
2023-03-21T23:08:09.236Z,14.80
2023-03-21T23:10:40.923Z,14.60
2023-03-21T23:13:07.698Z,13.28
2023-03-21T23:15:34.375Z,14.73
2023-03-21T23:18:01.060Z,14.58
2023-03-21T23:20:27.781Z,14.49
2023-03-21T23:22:54.255Z,13.62
2023-03-21T23:25:21.035Z,14.69
2023-03-21T23:27:47.821Z,14.90
2023-03-21T23:30:14.555Z,14.98
2023-03-21T23:32:41.393Z,15.19
2023-03-21T23:35:08.766Z,15.25
2023-03-21T23:37:35.264Z,15.31
2023-03-21T23:40:02.227Z,15.23
2023-03-21T23:42:30.104Z,13.60
2023-03-21T23:44:57.240Z,15.07
2023-03-21T23:47:23.858Z,15.38
2023-03-21T23:49:52.798Z,15.40
2023-03-21T23:52:19.351Z,13.55
2023-03-21T23:54:45.832Z,13.21
2023-03-21T23:57:12.350Z,13.24
2023-03-21T23:59:38.809Z,13.19
